createdAt,value
2024-02-24T00:00:53.078Z,3.50
2024-02-24T00:03:21.367Z,2.20
2024-02-24T00:05:49.702Z,2.20
2024-02-24T00:08:16.699Z,2.20
2024-02-24T00:10:43.699Z,2.20
2024-02-24T00:13:10.733Z,2.20
2024-02-24T00:15:37.812Z,2.30
2024-02-24T00:18:05.754Z,2.30
2024-02-24T00:20:32.856Z,2.30
2024-02-24T00:22:59.724Z,2.40
2024-02-24T00:25:26.527Z,2.40
2024-02-24T00:27:53.305Z,2.40
2024-02-24T00:30:20.148Z,2.40
2024-02-24T00:32:47.260Z,2.40
2024-02-24T00:35:14.499Z,2.40
2024-02-24T00:37:41.301Z,2.40
2024-02-24T00:40:10.206Z,2.40
2024-02-24T00:42:37.135Z,2.40
2024-02-24T00:45:04.510Z,2.50
2024-02-24T00:50:59.696Z,2.40
2024-02-24T00:53:28.324Z,2.40
2024-02-24T00:55:55.370Z,2.40
2024-02-24T00:58:22.229Z,2.40
2024-02-24T01:00:49.102Z,2.40
2024-02-24T01:03:15.893Z,2.30
2024-02-24T01:05:43.601Z,2.30
2024-02-24T01:08:10.736Z,2.30
2024-02-24T01:10:37.762Z,3.30
2024-02-24T01:13:04.642Z,2.40
2024-02-24T01:15:32.070Z,2.40
2024-02-24T01:17:58.908Z,2.40
2024-02-24T01:20:26.776Z,2.40
2024-02-24T01:22:55.369Z,2.50
2024-02-24T01:25:22.292Z,2.50
2024-02-24T01:27:51.108Z,2.50
2024-02-24T01:30:18.046Z,2.50
2024-02-24T01:32:45.000Z,4.40
2024-02-24T01:35:12.047Z,2.60
2024-02-24T01:37:38.870Z,4.20
2024-02-24T01:40:06.982Z,3.10
2024-02-24T01:42:34.173Z,2.60
2024-02-24T01:45:01.234Z,2.60
2024-02-24T01:47:28.225Z,2.60
2024-02-24T01:49:55.509Z,2.60
2024-02-24T01:52:22.456Z,2.80
2024-02-24T01:54:49.416Z,2.60
2024-02-24T01:57:16.253Z,2.60
2024-02-24T01:59:43.233Z,2.60
2024-02-24T02:02:12.526Z,2.60
2024-02-24T02:04:39.329Z,2.70
2024-02-24T02:07:06.167Z,4.70
2024-02-24T02:09:33.033Z,2.70
2024-02-24T02:12:03.514Z,2.80
2024-02-24T02:14:31.180Z,2.80
2024-02-24T02:16:57.968Z,2.80
2024-02-24T02:19:24.894Z,2.80
2024-02-24T02:21:52.408Z,2.80
2024-02-24T02:24:19.158Z,2.80
2024-02-24T02:26:46.105Z,4.40
2024-02-24T02:29:13.256Z,2.80
2024-02-24T02:31:40.068Z,2.90
2024-02-24T02:34:06.903Z,2.90
2024-02-24T02:36:34.132Z,2.80
2024-02-24T02:39:00.968Z,4.20
2024-02-24T02:41:28.405Z,2.90
2024-02-24T02:43:55.158Z,3.00
2024-02-24T02:46:21.905Z,2.90
2024-02-24T02:48:49.162Z,4.70
2024-02-24T02:51:15.995Z,3.00
2024-02-24T02:53:42.878Z,3.00
2024-02-24T02:56:13.134Z,3.00
2024-02-24T02:58:39.875Z,3.00
2024-02-24T03:01:09.418Z,3.20
2024-02-24T03:03:36.391Z,3.00
2024-02-24T03:06:03.706Z,3.80
2024-02-24T03:08:34.307Z,3.00
2024-02-24T03:11:04.672Z,3.00
2024-02-24T03:13:31.832Z,3.10
2024-02-24T03:15:58.571Z,3.10
2024-02-24T03:18:25.516Z,3.20
2024-02-24T03:20:52.444Z,3.20
2024-02-24T03:23:19.328Z,3.30
2024-02-24T03:25:46.197Z,3.30
2024-02-24T03:28:13.182Z,4.00
2024-02-24T03:30:40.023Z,4.10
2024-02-24T03:33:07.271Z,3.50
2024-02-24T03:35:34.253Z,3.40
2024-02-24T03:38:01.064Z,3.40
2024-02-24T03:40:27.909Z,5.20
2024-02-24T03:42:54.640Z,3.50
2024-02-24T03:45:21.444Z,5.40
2024-02-24T03:47:48.321Z,5.20
2024-02-24T03:50:15.290Z,3.60
2024-02-24T03:52:42.362Z,4.40
2024-02-24T03:55:09.391Z,3.70
2024-02-24T03:57:36.347Z,3.80
2024-02-24T04:00:03.969Z,3.80
2024-02-24T04:02:30.748Z,4.60
2024-02-24T04:04:57.522Z,3.80
2024-02-24T04:10:52.932Z,3.90
2024-02-24T04:13:21.492Z,4.00
2024-02-24T04:15:48.826Z,4.00
2024-02-24T04:18:16.505Z,4.00
2024-02-24T04:20:47.065Z,4.00
2024-02-24T04:23:14.234Z,4.00
2024-02-24T04:25:41.154Z,4.10
2024-02-24T04:28:07.971Z,5.50
2024-02-24T04:30:36.640Z,4.10
2024-02-24T04:33:03.665Z,4.10
2024-02-24T04:35:30.505Z,4.10
2024-02-24T04:37:57.387Z,5.90
2024-02-24T04:40:24.276Z,5.80
2024-02-24T04:42:51.078Z,5.90
2024-02-24T04:45:18.213Z,4.10
2024-02-24T04:47:45.173Z,4.50
2024-02-24T04:50:12.103Z,4.20
2024-02-24T04:52:38.944Z,5.40
2024-02-24T04:55:06.094Z,4.20
2024-02-24T04:57:33.041Z,4.30
2024-02-24T04:59:59.877Z,4.30
2024-02-24T05:02:26.700Z,4.30
2024-02-24T05:04:53.893Z,5.40
2024-02-24T05:07:20.895Z,5.60
2024-02-24T05:09:47.733Z,6.00
2024-02-24T05:12:14.738Z,5.90
2024-02-24T05:14:41.684Z,4.70
2024-02-24T05:17:09.264Z,6.60
2024-02-24T05:19:36.505Z,6.10
2024-02-24T05:22:03.531Z,5.90
2024-02-24T05:24:30.416Z,4.80
2024-02-24T05:26:57.206Z,6.50
2024-02-24T05:29:24.074Z,4.80
2024-02-24T05:31:51.012Z,4.80
2024-02-24T05:34:18.023Z,5.00
2024-02-24T05:36:44.854Z,5.50
2024-02-24T05:39:11.612Z,5.90
2024-02-24T05:41:38.615Z,6.50
2024-02-24T05:44:05.435Z,4.90
2024-02-24T05:46:32.228Z,4.80
2024-02-24T05:48:59.144Z,4.80
2024-02-24T05:51:26.105Z,6.60
2024-02-24T05:53:53.124Z,6.30
2024-02-24T05:56:20.117Z,4.80
2024-02-24T05:58:47.000Z,4.80
2024-02-24T06:01:15.474Z,4.90
2024-02-24T06:03:42.441Z,5.50
2024-02-24T06:06:09.523Z,4.90
2024-02-24T06:08:36.653Z,4.90
2024-02-24T06:11:03.594Z,6.40
2024-02-24T06:13:30.494Z,5.00
2024-02-24T06:15:57.657Z,5.90
2024-02-24T06:18:25.260Z,5.00
2024-02-24T06:20:54.058Z,6.80
2024-02-24T06:23:21.013Z,5.00
2024-02-24T06:25:48.184Z,6.60
2024-02-24T06:28:15.823Z,6.70
2024-02-24T06:30:42.988Z,6.90
2024-02-24T06:33:10.032Z,5.90
2024-02-24T06:35:37.075Z,5.20
2024-02-24T06:38:04.023Z,5.10
2024-02-24T06:40:37.510Z,5.20
2024-02-24T06:43:12.304Z,5.20
2024-02-24T06:45:39.686Z,5.90
2024-02-24T06:48:07.061Z,6.60
2024-02-24T06:50:34.131Z,5.20
2024-02-24T06:53:00.957Z,5.20
2024-02-24T06:55:27.710Z,5.20
2024-02-24T06:57:54.533Z,5.40
2024-02-24T07:00:22.735Z,5.30
2024-02-24T07:02:50.495Z,5.30
2024-02-24T07:05:17.393Z,6.70
2024-02-24T07:07:44.248Z,5.30
2024-02-24T07:10:11.099Z,6.30
2024-02-24T07:12:40.884Z,5.40
2024-02-24T07:15:10.232Z,5.40
2024-02-24T07:17:37.036Z,5.40
2024-02-24T07:20:04.701Z,6.00
2024-02-24T07:22:31.460Z,5.40
2024-02-24T07:24:58.201Z,6.00
2024-02-24T07:27:24.954Z,6.50
2024-02-24T07:29:51.903Z,5.50
2024-02-24T07:32:18.678Z,5.50
2024-02-24T07:34:46.123Z,6.60
2024-02-24T07:37:13.020Z,5.60
2024-02-24T07:39:39.794Z,6.60
2024-02-24T07:42:06.494Z,5.60
2024-02-24T07:44:33.284Z,5.60
2024-02-24T07:47:00.051Z,5.60
2024-02-24T07:49:26.809Z,6.50
2024-02-24T07:51:53.767Z,5.80
2024-02-24T07:54:20.478Z,6.10
2024-02-24T07:56:47.247Z,5.60
2024-02-24T07:59:14.057Z,5.60
2024-02-24T08:01:40.926Z,7.20
2024-02-24T08:04:10.191Z,5.70
2024-02-24T08:06:36.943Z,5.60
2024-02-24T08:09:04.291Z,5.60
2024-02-24T08:11:37.834Z,5.70
2024-02-24T08:14:04.725Z,5.70
2024-02-24T08:16:31.451Z,7.50
2024-02-24T08:18:58.302Z,7.60
2024-02-24T08:24:53.658Z,5.70
2024-02-24T08:27:20.518Z,6.60
2024-02-24T08:29:47.305Z,5.70
2024-02-24T08:32:14.236Z,7.00
2024-02-24T08:34:41.431Z,5.70
2024-02-24T08:37:08.204Z,6.80
2024-02-24T08:39:34.938Z,7.30
2024-02-24T08:42:03.506Z,6.20
2024-02-24T08:44:30.402Z,5.80
2024-02-24T08:46:57.172Z,5.70
2024-02-24T08:49:23.954Z,6.60
2024-02-24T08:51:50.808Z,5.70
2024-02-24T08:54:21.947Z,7.00
2024-02-24T08:56:49.127Z,6.30
2024-02-24T08:59:16.103Z,7.30
2024-02-24T09:01:42.895Z,7.40
2024-02-24T09:04:09.747Z,7.60
2024-02-24T09:06:37.593Z,5.80
2024-02-24T09:09:05.758Z,5.80
2024-02-24T09:11:32.864Z,6.90
2024-02-24T09:13:59.649Z,7.40
2024-02-24T09:16:26.378Z,5.80
2024-02-24T09:18:54.402Z,7.20
2024-02-24T09:21:21.275Z,6.00
2024-02-24T09:23:48.077Z,7.20
2024-02-24T09:26:15.864Z,5.90
2024-02-24T09:28:42.685Z,5.90
2024-02-24T09:31:10.541Z,5.90
2024-02-24T09:33:37.622Z,7.70
2024-02-24T09:36:05.105Z,6.00
2024-02-24T09:38:31.964Z,6.00
2024-02-24T09:40:58.948Z,6.70
2024-02-24T09:43:26.318Z,7.80
2024-02-24T09:45:53.627Z,6.20
2024-02-24T09:48:21.937Z,6.80
2024-02-24T09:50:48.868Z,7.60
2024-02-24T09:53:15.644Z,6.20
2024-02-24T09:55:44.356Z,7.60
2024-02-24T09:58:12.005Z,8.10
2024-02-24T10:00:38.811Z,6.40
2024-02-24T10:03:06.287Z,7.10
2024-02-24T10:05:33.618Z,8.10
2024-02-24T10:08:00.555Z,7.50
2024-02-24T10:10:29.600Z,7.40
2024-02-24T10:13:00.248Z,5.30
2024-02-24T10:15:27.219Z,6.80
2024-02-24T10:17:58.067Z,6.70
2024-02-24T10:20:25.172Z,6.80
2024-02-24T10:22:52.067Z,8.30
2024-02-24T10:25:19.090Z,8.20
2024-02-24T10:27:46.997Z,8.50
2024-02-24T10:30:14.176Z,7.00
2024-02-24T10:32:42.951Z,7.00
2024-02-24T10:35:10.117Z,7.00
2024-02-24T10:37:56.247Z,7.10
2024-02-24T10:40:23.987Z,7.50
2024-02-24T10:42:51.820Z,8.10
2024-02-24T10:45:19.026Z,7.10
2024-02-24T10:47:46.648Z,7.20
2024-02-24T10:50:14.452Z,7.60
2024-02-24T10:52:41.831Z,8.00
2024-02-24T10:55:09.049Z,7.90
2024-02-24T10:57:36.502Z,7.30
2024-02-24T11:00:22.301Z,7.60
2024-02-24T11:02:49.153Z,7.40
2024-02-24T11:05:16.225Z,7.80
2024-02-24T11:07:43.093Z,7.30
2024-02-24T11:10:20.114Z,9.00
2024-02-24T11:12:51.751Z,7.50
2024-02-24T11:15:19.903Z,7.50
2024-02-24T11:17:54.177Z,7.60
2024-02-24T11:20:40.292Z,7.60
2024-02-24T11:23:23.478Z,7.60
2024-02-24T11:25:58.690Z,7.70
2024-02-24T11:28:27.000Z,8.20
2024-02-24T11:30:55.548Z,7.70
2024-02-24T11:33:27.570Z,7.70
2024-02-24T11:35:56.260Z,7.70
2024-02-24T11:38:23.750Z,8.10
2024-02-24T11:40:51.334Z,7.70
2024-02-24T11:43:18.677Z,7.70
2024-02-24T11:45:54.641Z,8.00
2024-02-24T11:48:21.755Z,7.70
2024-02-24T11:50:49.535Z,8.40
2024-02-24T11:53:17.299Z,7.80
2024-02-24T11:55:44.631Z,9.40
2024-02-24T11:58:11.369Z,9.00
2024-02-24T12:00:38.926Z,8.60
2024-02-24T12:03:06.367Z,7.80
2024-02-24T12:05:33.187Z,7.80
2024-02-24T12:08:05.907Z,7.80
2024-02-24T12:10:39.540Z,7.80
2024-02-24T12:13:11.300Z,7.90
2024-02-24T12:15:43.857Z,8.30
2024-02-24T12:18:10.993Z,8.00
2024-02-24T12:20:38.404Z,8.10
2024-02-24T12:23:05.955Z,8.20
2024-02-24T12:25:32.823Z,8.10
2024-02-24T12:28:05.794Z,8.60
2024-02-24T12:30:37.202Z,8.20
2024-02-24T12:33:04.655Z,8.20
2024-02-24T12:35:32.173Z,8.20
2024-02-24T12:37:59.326Z,8.50
2024-02-24T12:40:36.084Z,8.30
2024-02-24T12:43:04.564Z,8.40
2024-02-24T12:45:32.286Z,8.30
2024-02-24T12:47:59.595Z,8.90
2024-02-24T12:50:27.411Z,8.90
2024-02-24T12:52:54.494Z,8.40
2024-02-24T12:55:21.717Z,8.40
2024-02-24T12:57:48.488Z,8.50
2024-02-24T13:00:15.609Z,9.10
2024-02-24T13:02:42.568Z,8.50
2024-02-24T13:05:09.753Z,9.60
2024-02-24T13:07:36.619Z,8.50
2024-02-24T13:10:03.899Z,9.20
2024-02-24T13:12:30.994Z,8.60
2024-02-24T13:14:58.378Z,9.90
2024-02-24T13:17:26.311Z,8.70
2024-02-24T13:19:53.514Z,8.70
2024-02-24T13:22:20.762Z,8.70
2024-02-24T13:24:47.580Z,8.70
2024-02-24T13:27:14.413Z,9.70
2024-02-24T13:29:41.220Z,9.20
2024-02-24T13:32:08.055Z,8.80
2024-02-24T13:34:35.232Z,9.10
2024-02-24T13:37:02.156Z,9.60
2024-02-24T13:39:28.940Z,8.80
2024-02-24T13:41:56.125Z,8.90
2024-02-24T13:44:23.129Z,8.80
2024-02-24T13:46:50.504Z,9.40
2024-02-24T13:49:19.720Z,10.90
2024-02-24T13:51:49.632Z,9.70
2024-02-24T13:54:17.303Z,9.50
2024-02-24T13:56:44.174Z,8.80
2024-02-24T13:59:11.124Z,9.80
2024-02-24T14:01:37.977Z,8.80
2024-02-24T14:04:05.097Z,9.60
2024-02-24T14:06:32.630Z,8.60
2024-02-24T14:09:05.900Z,8.30
2024-02-24T14:11:32.835Z,9.10
2024-02-24T14:13:59.572Z,7.30
2024-02-24T14:16:26.683Z,8.70
2024-02-24T14:18:54.089Z,7.80
2024-02-24T14:21:21.884Z,7.90
2024-02-24T14:23:48.851Z,6.90
2024-02-24T14:26:15.714Z,6.70
2024-02-24T14:28:42.455Z,7.20
2024-02-24T14:31:10.232Z,7.40
2024-02-24T14:33:37.030Z,7.10
2024-02-24T14:36:04.124Z,7.90
2024-02-24T14:38:31.044Z,6.00
2024-02-24T14:41:01.286Z,6.80
2024-02-24T14:43:28.586Z,7.30
2024-02-24T14:45:56.862Z,6.40
2024-02-24T14:48:23.748Z,5.40
2024-02-24T14:50:52.248Z,5.40
2024-02-24T14:53:19.324Z,5.40
2024-02-24T14:55:46.206Z,5.30
2024-02-24T15:05:10.128Z,4.80
2024-02-24T15:07:39.984Z,4.60
2024-02-24T15:10:08.238Z,4.80
2024-02-24T15:12:35.458Z,4.50
2024-02-24T15:15:02.483Z,6.00
2024-02-24T15:17:29.906Z,5.90
2024-02-24T15:19:58.418Z,5.90
2024-02-24T15:22:26.452Z,5.70
2024-02-24T15:24:55.372Z,5.90
2024-02-24T15:27:22.464Z,5.90
2024-02-24T15:29:49.295Z,2.90
2024-02-24T15:32:17.242Z,6.00
2024-02-24T15:34:46.441Z,5.70
2024-02-24T15:37:13.630Z,5.20
2024-02-24T15:39:41.130Z,3.70
2024-02-24T15:42:08.218Z,5.70
2024-02-24T15:44:41.321Z,5.00
2024-02-24T15:47:08.200Z,3.70
2024-02-24T15:49:35.067Z,3.50
2024-02-24T15:52:04.813Z,5.20
2024-02-24T15:54:31.747Z,4.80
2024-02-24T15:56:58.640Z,5.00
2024-02-24T15:59:30.064Z,5.50
2024-02-24T16:01:57.015Z,5.40
2024-02-24T16:04:24.078Z,2.60
2024-02-24T16:06:51.139Z,3.50
2024-02-24T16:09:18.541Z,4.90
2024-02-24T16:11:45.516Z,4.80
2024-02-24T16:14:12.550Z,3.40
2024-02-24T16:16:41.666Z,3.90
2024-02-24T16:19:10.289Z,3.40
2024-02-24T16:21:44.143Z,5.20
2024-02-24T16:24:13.661Z,5.20
2024-02-24T16:27:00.612Z,5.30
2024-02-24T16:29:32.992Z,3.20
2024-02-24T16:32:00.053Z,3.20
2024-02-24T16:34:45.037Z,4.60
2024-02-24T16:37:39.851Z,2.30
2024-02-24T16:43:07.379Z,3.40
2024-02-24T16:45:41.952Z,2.70
2024-02-24T16:48:12.571Z,4.60
2024-02-24T16:53:12.971Z,4.10
2024-02-24T16:55:41.233Z,2.20
2024-02-24T17:01:13.565Z,2.30
2024-02-24T17:04:06.351Z,3.60
2024-02-24T17:06:34.154Z,3.50
2024-02-24T17:09:16.393Z,5.40
2024-02-24T17:11:44.859Z,3.40
2024-02-24T17:14:16.346Z,3.70
2024-02-24T17:16:52.687Z,3.40
2024-02-24T17:19:20.655Z,3.30
2024-02-24T17:22:03.059Z,4.90
2024-02-24T17:24:32.609Z,3.50
2024-02-24T17:27:09.986Z,5.50
2024-02-24T17:29:40.389Z,5.70
2024-02-24T17:32:13.785Z,2.80
2024-02-24T17:34:43.396Z,3.80
2024-02-24T17:37:10.274Z,4.70
2024-02-24T17:39:37.105Z,5.70
2024-02-24T17:42:09.259Z,5.60
2024-02-24T17:44:40.282Z,3.80
2024-02-24T17:47:15.854Z,3.90
2024-02-24T17:58:40.646Z,3.90
2024-02-24T18:01:18.788Z,4.10
2024-02-24T18:03:46.165Z,4.30
2024-02-24T18:06:14.596Z,4.70
2024-02-24T18:08:46.783Z,3.40
2024-02-24T18:11:34.438Z,5.90
2024-02-24T18:14:01.334Z,5.40
2024-02-24T18:16:28.115Z,3.90
2024-02-24T18:18:55.786Z,5.60
2024-02-24T18:21:23.134Z,4.00
2024-02-24T18:23:52.613Z,4.00
2024-02-24T18:26:40.130Z,4.10
2024-02-24T18:29:07.411Z,4.80
2024-02-24T18:31:34.702Z,4.20
2024-02-24T18:34:22.183Z,3.80
2024-02-24T18:36:49.240Z,4.70
2024-02-24T18:39:16.260Z,4.70
2024-02-24T18:41:43.115Z,4.30
2024-02-24T18:44:10.004Z,5.00
2024-02-24T18:46:39.560Z,5.50
2024-02-24T18:49:09.196Z,4.70
2024-02-24T18:51:36.199Z,5.80
2024-02-24T18:54:03.566Z,5.90
2024-02-24T18:56:30.796Z,5.90
2024-02-24T18:58:57.834Z,4.10
2024-02-24T19:01:26.989Z,4.80
2024-02-24T19:03:53.938Z,5.00
2024-02-24T19:06:20.926Z,5.80
2024-02-24T19:08:48.121Z,5.90
2024-02-24T19:11:15.035Z,5.40
2024-02-24T19:13:41.964Z,6.10
2024-02-24T19:16:09.451Z,4.80
2024-02-24T19:18:36.375Z,6.00
2024-02-24T19:21:04.470Z,6.10
2024-02-24T19:23:32.333Z,4.20
2024-02-24T19:25:59.287Z,4.90
2024-02-24T19:28:26.333Z,4.70
2024-02-24T19:30:53.234Z,6.00
2024-02-24T19:33:21.518Z,6.00
2024-02-24T19:35:48.580Z,5.70
2024-02-24T19:38:15.468Z,5.00
2024-02-24T19:40:43.150Z,5.80
2024-02-24T19:43:12.374Z,3.90
2024-02-24T19:45:40.498Z,5.50
2024-02-24T19:48:07.860Z,4.20
2024-02-24T19:50:40.931Z,4.00
2024-02-24T19:53:07.960Z,4.40
2024-02-24T19:55:34.927Z,5.70
2024-02-24T19:58:10.955Z,5.60
2024-02-24T20:00:44.103Z,5.80
2024-02-24T20:03:11.303Z,6.30
2024-02-24T20:05:38.330Z,4.90
2024-02-24T20:08:07.407Z,5.20
2024-02-24T20:10:35.607Z,4.10
2024-02-24T20:13:03.343Z,5.90
2024-02-24T20:15:30.213Z,4.20
2024-02-24T20:17:59.439Z,5.30
2024-02-24T20:20:26.866Z,4.30
2024-02-24T20:22:53.906Z,4.40
2024-02-24T20:25:21.156Z,5.80
2024-02-24T20:27:48.060Z,5.50
2024-02-24T20:30:17.502Z,6.10
2024-02-24T20:32:44.521Z,4.30
2024-02-24T20:35:11.530Z,5.00
2024-02-24T20:37:38.618Z,5.50
2024-02-24T20:40:09.226Z,6.20
2024-02-24T20:42:36.084Z,4.20
2024-02-24T20:45:05.049Z,4.10
2024-02-24T20:47:36.845Z,5.30
2024-02-24T20:50:03.936Z,4.00
2024-02-24T20:52:30.746Z,3.90
2024-02-24T20:54:57.686Z,5.80
2024-02-24T20:57:24.605Z,5.50
2024-02-24T20:59:52.008Z,3.60
2024-02-24T21:02:18.989Z,5.40
2024-02-24T21:04:45.867Z,3.90
2024-02-24T21:07:12.662Z,4.70
2024-02-24T21:09:39.683Z,3.80
2024-02-24T21:12:14.676Z,4.60
2024-02-24T21:14:41.788Z,3.70
2024-02-24T21:17:08.589Z,3.70
2024-02-24T21:19:37.997Z,3.70
2024-02-24T21:22:05.086Z,5.80
2024-02-24T21:24:31.955Z,3.70
2024-02-24T21:26:59.487Z,5.50
2024-02-24T21:29:26.516Z,5.50
2024-02-24T21:31:55.031Z,5.70
2024-02-24T21:34:22.395Z,3.70
2024-02-24T21:36:49.201Z,3.60
2024-02-24T21:39:15.997Z,5.80
2024-02-24T21:41:42.921Z,5.60
2024-02-24T21:44:09.820Z,5.30
2024-02-24T21:46:36.734Z,5.10
2024-02-24T21:49:03.775Z,3.70
2024-02-24T21:51:30.951Z,3.80
2024-02-24T21:53:58.002Z,5.70
2024-02-24T21:56:24.848Z,5.80
2024-02-24T21:58:51.796Z,3.80
2024-02-24T22:01:20.145Z,4.60
2024-02-24T22:03:47.210Z,3.70
2024-02-24T22:06:14.359Z,5.60
2024-02-24T22:08:41.252Z,5.30
2024-02-24T22:11:08.197Z,3.80
2024-02-24T22:13:35.438Z,5.50
2024-02-24T22:16:02.232Z,5.00
2024-02-24T22:18:29.301Z,4.60
2024-02-24T22:20:56.335Z,5.70
2024-02-24T22:23:23.294Z,4.40
2024-02-24T22:25:50.148Z,3.70
2024-02-24T22:28:16.972Z,3.60
2024-02-24T22:30:45.114Z,3.60
2024-02-24T22:33:12.024Z,3.60
2024-02-24T22:35:38.994Z,5.50
2024-02-24T22:38:05.817Z,3.50
2024-02-24T22:40:33.073Z,5.30
2024-02-24T22:42:59.962Z,4.50
2024-02-24T22:45:26.829Z,5.50
2024-02-24T22:47:53.783Z,3.60
2024-02-24T22:50:20.622Z,5.20
2024-02-24T22:52:47.499Z,5.20
2024-02-24T22:55:14.367Z,5.50
2024-02-24T22:57:41.214Z,5.30
2024-02-24T23:00:10.230Z,3.60
2024-02-24T23:02:37.012Z,3.70
2024-02-24T23:05:03.937Z,5.60
2024-02-24T23:07:30.857Z,3.80
2024-02-24T23:09:58.484Z,4.70
2024-02-24T23:12:25.233Z,3.70
2024-02-24T23:14:52.065Z,5.30
2024-02-24T23:17:20.298Z,3.80
2024-02-24T23:19:47.254Z,3.80
2024-02-24T23:22:14.081Z,5.30
2024-02-24T23:24:40.981Z,5.70
2024-02-24T23:27:07.870Z,3.90
2024-02-24T23:29:34.808Z,3.90
2024-02-24T23:32:01.548Z,5.40
2024-02-24T23:34:28.361Z,3.90
2024-02-24T23:36:55.191Z,5.60
2024-02-24T23:39:22.833Z,5.20
2024-02-24T23:41:51.571Z,5.40
2024-02-24T23:44:20.451Z,5.80
2024-02-24T23:46:47.217Z,5.10
2024-02-24T23:49:16.325Z,5.60
2024-02-24T23:51:43.628Z,4.10
2024-02-24T23:54:10.405Z,4.10
2024-02-24T23:56:37.230Z,4.00
2024-02-24T23:59:04.656Z,5.30
